Time;durP1;ratioP1;P1;durP2;ratioP2;P2;SDS_P1;SDS_P2;PMS_P1;PMS_P2;Temp;Humidity;BMP_temperature;BMP_pressure;BME280_temperature;BME280_humidity;BME280_pressure;Samples;Min_cycle;Max_cycle;Signal;HPM_P1;HPM_P2
2023/12/26 00:01:57;;;;;;;29.65;16.67;;;;;;;7.93;100.00;99127.03;5946956;23;20019;-95
2023/12/26 00:19:19;;;;;;;28.48;16.60;;;;;;;8.05;100.00;99141.06;6021498;23;20374;-95
2023/12/26 00:22:35;;;;;;;27.25;14.30;;;;;;;7.95;100.00;99112.00;5997314;23;20019;-94
2023/12/26 00:25:39;;;;;;;35.45;15.90;;;;;;;8.29;100.00;99153.16;5995922;23;20031;-94
2023/12/26 00:44:31;;;;;;;29.08;13.98;;;;;;;8.54;100.00;99157.25;5935398;24;20021;-94
2023/12/26 00:47:02;;;;;;;26.88;15.32;;;;;;;8.51;100.00;99141.41;5891197;24;20019;-95
2023/12/26 00:49:40;;;;;;;31.05;15.18;;;;;;;8.76;100.00;99191.44;5912066;24;20096;-95
2023/12/26 00:52:14;;;;;;;24.80;14.25;;;;;;;8.52;100.00;99140.53;5889567;24;20021;-96
2023/12/26 00:55:19;;;;;;;28.88;14.65;;;;;;;8.35;100.00;99108.91;5886509;24;20016;-95
2023/12/26 00:57:52;;;;;;;28.90;14.45;;;;;;;8.45;100.00;99108.81;5934352;24;20095;-94
2023/12/26 01:03:59;;;;;;;26.17;14.40;;;;;;;8.46;100.00;99107.91;5940690;24;20012;-95
2023/12/26 01:06:38;;;;;;;29.20;15.20;;;;;;;9.06;100.00;99187.50;6024135;23;20052;-96
2023/12/26 01:09:20;;;;;;;27.70;14.18;;;;;;;9.05;100.00;99169.84;6046895;23;20023;-96
2023/12/26 01:15:26;;;;;;;34.65;15.82;;;;;;;8.48;100.00;99111.41;6223052;23;20032;-93
2023/12/26 01:18:07;;;;;;;32.92;14.95;;;;;;;8.56;100.00;99096.28;6261794;22;20054;-96
2023/12/26 01:20:47;;;;;;;27.00;14.57;;;;;;;8.89;100.00;99124.13;6287477;22;20022;-94
2023/12/26 01:29:51;;;;;;;;;;;;;;;;;;;;;
2023/12/26 01:32:37;;;;;;;29.95;15.38;;;;;;;8.64;100.00;99102.38;6285274;22;20020;-95
2023/12/26 01:35:31;;;;;;;31.23;15.02;;;;;;;8.89;100.00;99139.13;6224586;23;20486;-95
2023/12/26 01:38:28;;;;;;;28.70;15.38;;;;;;;8.80;100.00;99124.22;6224087;23;20371;-96
2023/12/26 01:41:09;;;;;;;24.52;13.75;;;;;;;8.89;100.00;99109.94;6199205;23;20027;-94
2023/12/26 01:43:46;;;;;;;22.75;13.93;;;;;;;8.91;100.00;99118.75;6197541;23;20024;-94
2023/12/26 01:49:37;;;;;;;24.63;12.48;;;;;;;9.29;100.00;99159.78;6166160;23;20025;-94
2023/12/26 01:52:41;;;;;;;29.10;13.13;;;;;;;8.79;100.00;99112.75;6199636;23;20017;-96
2023/12/26 01:55:25;;;;;;;25.17;12.48;;;;;;;8.97;100.00;99111.59;6187848;23;20051;-96
2023/12/26 01:58:15;;;;;;;25.25;11.82;;;;;;;9.10;100.00;99116.72;6198760;23;20020;-96
2023/12/26 02:01:05;;;;;;;28.85;12.95;;;;;;;9.04;100.00;99109.72;6279072;22;20046;-94
2023/12/26 02:03:55;;;;;;;28.25;11.50;;;;;;;9.18;100.00;99121.00;6283762;22;20020;-96
2023/12/26 02:06:42;;;;;;;23.55;12.27;;;;;;;9.12;100.00;99101.66;6283739;22;20046;-94
2023/12/26 02:09:21;;;;;;;25.27;11.32;;;;;;;9.16;100.00;99106.00;6285616;22;20024;-96
2023/12/26 02:12:07;;;;;;;24.23;12.13;;;;;;;9.12;100.00;99102.53;6251976;23;20012;-95
2023/12/26 02:15:13;;;;;;;23.65;11.68;;;;;;;9.35;100.00;99138.44;6252870;23;20031;-94
2023/12/26 02:24:12;;;;;;;23.58;11.48;;;;;;;9.29;100.00;99093.44;6192292;23;19963;-94
2023/12/26 02:27:00;;;;;;;27.92;14.07;;;;;;;9.20;100.00;99089.16;6167798;23;20096;-94
2023/12/26 02:29:57;;;;;;;27.75;12.43;;;;;;;9.71;100.00;99170.56;6166397;23;20024;-94
2023/12/26 02:32:41;;;;;;;27.08;12.63;;;;;;;9.25;100.00;99081.97;6166024;23;20017;-96
2023/12/26 02:35:23;;;;;;;25.17;12.63;;;;;;;9.24;100.00;99096.16;6167201;23;20021;-96
2023/12/26 02:37:54;;;;;;;21.33;12.00;;;;;;;9.60;100.00;99155.69;6167121;23;20021;-95
2023/12/26 02:40:53;;;;;;;23.30;12.00;;;;;;;9.52;100.00;99152.31;6190243;23;20028;-95
2023/12/26 02:43:36;;;;;;;28.80;12.93;;;;;;;9.14;100.00;99078.63;6166133;23;20017;-94
2023/12/26 02:46:38;;;;;;;21.90;12.05;;;;;;;9.25;100.00;99081.97;6190997;23;20083;-94
2023/12/26 02:49:27;;;;;;;29.17;11.70;;;;;;;9.11;100.00;99073.34;6167421;23;20048;-94
2023/12/26 02:52:36;;;;;;;20.55;10.40;;;;;;;9.23;100.00;99084.66;6168629;23;20021;-95
2023/12/26 02:55:20;;;;;;;21.40;10.88;;;;;;;9.19;100.00;99087.38;6052707;23;20027;-96
2023/12/26 03:01:39;;;;;;;;;;;;;;;9.72;100.00;99159.94;6139585;23;20018;-96
2023/12/26 03:04:36;;;;;;;21.65;9.27;;;;;;;9.45;100.00;99127.66;6161892;23;19916;-95
2023/12/26 03:14:26;;;;;;;15.40;8.43;;;;;;;9.24;100.00;99086.41;6136554;23;20092;-95
2023/12/26 03:17:17;;;;;;;21.85;10.40;;;;;;;9.56;100.00;99156.66;6138783;23;20108;-95
2023/12/26 03:19:51;;;;;;;17.23;9.88;;;;;;;9.21;100.00;99075.84;6137271;23;20025;-95
2023/12/26 03:23:00;;;;;;;20.50;9.95;;;;;;;9.23;100.00;99091.75;6136801;23;20018;-96
2023/12/26 03:25:43;;;;;;;20.10;10.38;;;;;;;9.22;100.00;99077.59;6137097;23;20022;-95
2023/12/26 03:28:31;;;;;;;23.60;9.73;;;;;;;9.17;100.00;99070.59;6137914;23;20022;-95
2023/12/26 03:31:20;;;;;;;17.95;9.43;;;;;;;9.19;100.00;99082.06;6141584;23;20028;-96
2023/12/26 03:34:26;;;;;;;22.88;9.52;;;;;;;9.20;100.00;99079.41;6253212;23;20024;-95
2023/12/26 03:37:13;;;;;;;19.50;8.60;;;;;;;9.17;100.00;99074.16;6254445;23;20094;-95
2023/12/26 03:39:57;;;;;;;19.20;8.45;;;;;;;9.22;100.00;99088.22;6206477;23;20074;-96
2023/12/26 03:42:48;;;;;;;18.42;8.68;;;;;;;9.21;100.00;99083.78;6252259;23;20020;-95
2023/12/26 03:45:28;;;;;;;16.02;7.72;;;;;;;9.12;100.00;99083.09;6252480;23;20016;-96
2023/12/26 03:48:25;;;;;;;15.80;8.38;;;;;;;9.16;100.00;99090.09;6252743;23;20389;-95
2023/12/26 03:51:05;;;;;;;19.75;9.20;;;;;;;9.14;100.00;99081.28;6255984;23;20020;-95
2023/12/26 03:53:46;;;;;;;16.38;8.50;;;;;;;9.55;100.00;99151.38;6281740;22;20012;-95
2023/12/26 03:56:28;;;;;;;17.20;8.55;;;;;;;9.20;100.00;99091.81;6255351;23;20076;-95
2023/12/26 03:59:29;;;;;;;17.25;8.88;;;;;;;9.02;100.00;99069.06;6255412;23;20447;-96
2023/12/26 04:02:11;;;;;;;16.65;8.02;;;;;;;9.35;100.00;99117.22;6254413;23;20084;-95
2023/12/26 04:04:54;;;;;;;21.58;8.45;;;;;;;9.19;100.00;99080.28;6255068;23;20016;-94
2023/12/26 04:07:28;;;;;;;16.73;8.30;;;;;;;8.89;100.00;99083.44;6256038;23;20023;-95
2023/12/26 04:10:13;;;;;;;16.17;7.90;;;;;;;9.30;100.00;99153.53;6254916;23;20078;-95
2023/12/26 04:12:56;;;;;;;16.48;8.40;;;;;;;8.96;100.00;99090.41;6255621;23;20024;-96
2023/12/26 04:19:36;;;;;;;14.68;7.97;;;;;;;9.07;100.00;99085.81;6252382;22;20022;-95
2023/12/26 04:22:23;;;;;;;17.85;6.97;;;;;;;8.99;100.00;99064.69;6253687;23;20373;-95
2023/12/26 04:25:00;;;;;;;17.85;7.15;;;;;;;9.11;100.00;99068.06;6255267;23;20067;-96
2023/12/26 04:27:37;;;;;;;20.40;8.02;;;;;;;9.11;100.00;99057.44;6255734;23;20078;-94
2023/12/26 04:30:19;;;;;;;14.90;7.22;;;;;;;9.46;100.00;99131.19;6255224;23;20016;-94
2023/12/26 04:33:12;;;;;;;15.07;6.80;;;;;;;9.15;100.00;99077.72;6256671;23;20362;-95
2023/12/26 04:35:51;;;;;;;12.00;6.40;;;;;;;9.34;100.00;99112.78;6256183;23;20047;-96
2023/12/26 04:38:48;;;;;;;12.75;6.38;;;;;;;9.21;100.00;99091.75;6254118;23;20134;-95
2023/12/26 04:47:41;;;;;;;14.85;6.85;;;;;;;8.85;100.00;99064.06;6109692;23;19999;-96
2023/12/26 04:50:29;;;;;;;14.73;6.47;;;;;;;9.03;100.00;99097.38;6113226;23;20023;-96
2023/12/26 04:53:15;;;;;;;13.77;6.00;;;;;;;8.89;100.00;99064.88;6109901;23;20069;-95
2023/12/26 04:56:21;;;;;;;16.52;5.93;;;;;;;8.86;100.00;99070.22;6109331;23;20053;-95
2023/12/26 04:59:32;;;;;;;12.57;6.13;;;;;;;8.78;100.00;99063.28;6101641;23;20387;-96
2023/12/26 05:02:07;;;;;;;11.23;5.70;;;;;;;8.70;100.00;99072.25;6092939;23;20022;-96
2023/12/26 05:04:43;;;;;;;14.75;6.25;;;;;;;8.93;100.00;99122.28;6109669;23;20492;-96
2023/12/26 05:07:16;;;;;;;10.95;5.60;;;;;;;8.72;100.00;99073.97;6108245;23;20022;-94
2023/12/26 05:09:58;;;;;;;21.23;6.13;;;;;;;9.17;100.00;99145.81;6254978;23;20466;-95
2023/12/26 05:13:04;;;;;;;14.50;5.70;;;;;;;8.70;100.00;99062.50;6254629;23;20016;-96
2023/12/26 05:15:53;;;;;;;11.27;5.60;;;;;;;8.84;100.00;99079.06;6253654;23;20020;-93
2023/12/26 05:18:21;;;;;;;16.98;6.18;;;;;;;9.02;100.00;99106.22;6254831;23;20020;-96
2023/12/26 05:21:07;;;;;;;13.82;5.85;;;;;;;8.84;100.00;99065.81;6259297;22;20035;-96
2023/12/26 05:23:59;;;;;;;9.85;5.53;;;;;;;9.22;100.00;99143.06;6258490;22;20043;-94
2023/12/26 05:26:42;;;;;;;9.50;4.90;;;;;;;8.83;100.00;99077.34;6260888;22;20497;-96
2023/12/26 05:29:22;;;;;;;9.48;4.55;;;;;;;9.32;100.00;99160.56;6259351;22;20019;-94
2023/12/26 05:32:01;;;;;;;13.77;5.55;;;;;;;9.25;100.00;99154.50;6259141;22;20016;-95
2023/12/26 05:34:45;;;;;;;15.40;5.32;;;;;;;8.74;100.00;99071.28;6259587;22;20024;-94
2023/12/26 05:37:31;;;;;;;17.17;6.10;;;;;;;8.76;100.00;99083.63;6259019;22;20093;-94
2023/12/26 05:40:24;;;;;;;10.68;5.35;;;;;;;8.69;100.00;99086.38;6246001;22;20015;-94
2023/12/26 05:59:54;;;;;;;14.98;4.97;;;;;;;8.68;100.00;99088.16;6018221;23;20028;-96
2023/12/26 06:09:51;;;;;;;11.07;4.30;;;;;;;8.70;100.00;99096.97;5884973;24;20009;-95
2023/12/26 06:12:38;;;;;;;17.67;5.90;;;;;;;8.61;100.00;99102.41;5885425;24;20049;-95
2023/12/26 06:21:23;;;;;;;8.98;4.53;;;;;;;8.48;100.00;99106.09;5882293;24;20035;-95
2023/12/26 06:34:26;;;;;;;10.20;4.82;;;;;;;8.07;100.00;99111.00;5934969;24;20478;-96
2023/12/26 06:37:21;;;;;;;13.63;3.97;;;;;;;8.23;100.00;99127.59;5925563;24;20035;-96
2023/12/26 06:40:52;;;;;;;8.05;4.28;;;;;;;7.91;100.00;99102.34;5967887;24;20031;-95
2023/12/26 06:44:03;;;;;;;10.68;4.53;;;;;;;7.79;100.00;99113.06;6058775;23;20018;-95
2023/12/26 06:48:17;;;;;;;;;;;;;;;;;;;;;
2023/12/26 06:57:05;;;;;;;;;;;;;;;;;;;;;
2023/12/26 07:00:36;;;;;;;;;;;;;;;;;;;;;
2023/12/26 07:03:24;;;;;;;12.05;3.95;;;;;;;7.96;100.00;99147.34;6078305;23;20042;-96
2023/12/26 07:06:15;;;;;;;10.27;4.60;;;;;;;7.83;100.00;99136.00;6053273;23;20023;-96
2023/12/26 07:23:16;;;;;;;12.35;4.40;;;;;;;9.35;100.00;99210.97;6078771;23;20023;-95
2023/12/26 07:26:27;;;;;;;11.13;4.25;;;;;;;9.10;100.00;99148.56;6057820;23;20023;-96
2023/12/26 07:29:15;;;;;;;;;;;;;;;;;;;;;
2023/12/26 07:32:20;;;;;;;8.90;4.07;;;;;;;9.53;100.00;99145.22;6079324;23;20483;-96
2023/12/26 07:35:30;;;;;;;8.48;3.55;;;;;;;9.66;100.00;99166.22;6072840;23;20445;-95
2023/12/26 07:38:32;;;;;;;7.55;3.25;;;;;;;9.67;100.00;99159.13;6080032;23;20100;-95
2023/12/26 07:41:22;;;;;;;6.97;3.03;;;;;;;9.96;100.00;99155.97;6140463;23;20029;-95
2023/12/26 07:47:54;;;;;;;7.80;2.95;;;;;;;10.53;100.00;99225.81;6050955;23;20103;-95
2023/12/26 07:50:41;;;;;;;9.32;3.40;;;;;;;10.15;100.00;99175.09;6050693;23;20058;-94
2023/12/26 07:53:20;;;;;;;8.13;3.40;;;;;;;10.20;100.00;99161.72;6078948;23;20019;-93
2023/12/26 07:55:57;;;;;;;13.68;3.40;;;;;;;10.35;100.00;99173.88;6052898;23;20019;-96
2023/12/26 07:59:48;;;;;;;;;;;;;;;;;;;;;
2023/12/26 08:02:04;;;;;;;10.95;3.53;;;;;;;10.41;100.00;99171.97;6055243;23;20021;-95
2023/12/26 08:04:59;;;;;;;9.60;3.80;;;;;;;10.40;100.00;99177.31;6112642;23;20054;-96
2023/12/26 08:08:29;;;;;;;11.60;4.70;;;;;;;10.86;100.00;99261.47;6114648;23;20369;-95
2023/12/26 08:11:56;;;;;;;7.95;3.83;;;;;;;10.46;100.00;99188.69;6086665;23;20015;-94
2023/12/26 08:15:22;;;;;;;11.65;3.80;;;;;;;10.41;100.00;99179.03;6086840;23;20051;-96
2023/12/26 08:18:25;;;;;;;11.52;4.22;;;;;;;11.00;100.00;99269.22;6101010;23;20025;-95
2023/12/26 08:21:31;;;;;;;10.48;4.45;;;;;;;10.50;100.00;99202.81;6172609;23;20024;-96
2023/12/26 08:24:41;;;;;;;11.20;3.67;;;;;;;10.55;100.00;99198.28;6174217;23;20041;-95
2023/12/26 08:27:26;;;;;;;7.72;3.60;;;;;;;10.63;100.00;99192.81;6167529;23;20024;-95
2023/12/26 08:30:24;;;;;;;;;;;;;;;;;;;;;
2023/12/26 08:33:13;;;;;;;5.63;3.25;;;;;;;10.72;100.00;99216.56;6169336;23;20435;-95
2023/12/26 08:35:49;;;;;;;7.38;3.67;;;;;;;10.72;100.00;99211.22;6167246;23;20033;-95
2023/12/26 08:48:40;;;;;;;11.52;4.50;;;;;;;11.49;100.00;99271.69;6069293;23;20018;-94
2023/12/26 08:51:24;;;;;;;8.30;3.50;;;;;;;11.23;100.00;99212.78;6081374;23;20030;-95
2023/12/26 09:36:10;;;;;;;;;;;;;;;;;;;;;
2023/12/26 09:39:36;;;;;;;;;;;;;;;;;;;;;
2023/12/26 09:50:08;;;;;;;5.95;2.90;;;;;;;13.05;100.00;99230.28;5962318;24;20055;-94
2023/12/26 09:52:58;;;;;;;6.18;2.55;;;;;;;13.34;100.00;99262.38;5951912;23;20104;-96
2023/12/26 10:02:17;;;;;;;6.35;3.50;;;;;;;12.74;100.00;99234.72;6052247;23;20370;-95
2023/12/26 10:04:55;;;;;;;11.93;4.60;;;;;;;13.43;100.00;99305.78;6053002;23;20042;-96
2023/12/26 10:07:42;;;;;;;8.13;3.72;;;;;;;13.30;100.00;99279.41;6051391;23;20365;-94
2023/12/26 10:10:21;;;;;;;;;;;;;;;;;;;;;
2023/12/26 10:12:56;;;;;;;7.22;3.20;;;;;;;13.17;100.00;99221.06;6052078;23;20029;-95
2023/12/26 10:15:28;;;;;;;14.77;3.78;;;;;;;13.37;100.00;99221.34;6050592;23;20120;-96
2023/12/26 10:18:04;;;;;;;10.20;4.15;;;;;;;13.23;100.00;99210.16;6053722;23;20018;-96
2023/12/26 10:21:01;;;;;;;8.43;3.17;;;;;;;13.65;100.00;99265.91;6053701;23;20465;-96
2023/12/26 10:24:30;;;;;;;9.85;3.50;;;;;;;13.40;100.00;99212.34;6056887;23;20031;-95
2023/12/26 10:34:19;;;;;;;12.73;4.25;;;;;;;13.53;100.00;99200.34;6141502;23;20020;-96
2023/12/26 10:37:01;;;;;;;14.05;3.90;;;;;;;13.34;100.00;99200.09;6114995;23;20037;-95
2023/12/26 10:39:34;;;;;;;11.25;4.20;;;;;;;13.34;100.00;99218.78;6140584;23;20018;-95
2023/12/26 10:42:07;;;;;;;11.13;3.15;;;;;;;13.19;100.00;99206.75;6138460;23;20018;-94
2023/12/26 10:45:00;;;;;;;5.65;2.35;;;;;;;13.24;100.00;99196.78;6113525;23;20093;-95
2023/12/26 10:47:40;;;;;;;7.72;2.55;;;;;;;13.43;100.00;99221.16;6100301;23;20105;-95
2023/12/26 10:50:14;;;;;;;7.28;2.80;;;;;;;13.81;100.00;99258.25;6138987;23;20022;-96
2023/12/26 10:52:54;;;;;;;6.53;2.63;;;;;;;13.94;100.00;99271.19;6116298;23;20022;-96
2023/12/26 10:55:32;;;;;;;9.73;2.85;;;;;;;13.35;100.00;99181.31;6139275;23;20025;-95
2023/12/26 10:58:10;;;;;;;11.77;3.67;;;;;;;13.64;100.00;99178.63;6113291;23;20022;-95
2023/12/26 11:05:09;;;;;;;6.97;2.65;;;;;;;14.15;100.00;99264.25;6137897;23;20053;-96
2023/12/26 11:07:48;;;;;;;6.93;2.92;;;;;;;13.85;100.00;99180.56;6203659;23;20019;-96
2023/12/26 11:10:23;;;;;;;8.10;3.60;;;;;;;14.11;100.00;99193.06;6231014;23;20044;-95
2023/12/26 11:13:00;;;;;;;7.80;3.10;;;;;;;14.24;100.00;99222.94;6232157;23;20020;-96
2023/12/26 11:23:32;;;;;;;9.52;2.78;;;;;;;14.34;100.00;99245.75;6047233;23;20521;-95
2023/12/26 11:30:22;;;;;;;7.00;2.97;;;;;;;13.92;100.00;99167.88;6024620;23;20071;-96
2023/12/26 11:33:00;;;;;;;5.03;2.33;;;;;;;13.88;100.00;99164.44;6066729;23;20022;-95
2023/12/26 11:38:55;;;;;;;5.15;2.20;;;;;;;14.00;100.00;99170.31;6109213;23;20016;-94
2023/12/26 11:41:22;;;;;;;6.95;2.10;;;;;;;13.98;100.00;99154.31;6081180;23;20094;-96
2023/12/26 11:43:58;;;;;;;6.90;1.80;;;;;;;14.31;100.00;99213.78;6255525;23;20016;-96
2023/12/26 11:46:39;;;;;;;5.68;2.15;;;;;;;14.12;100.00;99202.84;6233683;23;20077;-94
2023/12/26 11:49:06;;;;;;;9.07;2.90;;;;;;;13.75;100.00;99136.41;6229536;23;20080;-95
2023/12/26 11:51:35;;;;;;;9.82;3.45;;;;;;;13.86;100.00;99141.38;6231915;23;20021;-96
2023/12/26 11:54:02;;;;;;;6.70;2.40;;;;;;;13.99;100.00;99185.47;6230780;23;20027;-96
2023/12/26 11:56:35;;;;;;;8.15;2.72;;;;;;;13.80;100.00;99133.56;6229169;23;20020;-95
2023/12/26 11:59:08;;;;;;;8.73;2.95;;;;;;;13.73;100.00;99139.13;6230072;23;20017;-96
2023/12/26 12:01:48;;;;;;;9.45;3.55;;;;;;;13.89;100.00;99133.25;6230722;23;20047;-96
2023/12/26 12:04:16;;;;;;;10.55;3.60;;;;;;;14.07;100.00;99140.59;6233240;23;20020;-95
2023/12/26 12:07:12;;;;;;;5.05;2.55;;;;;;;14.11;100.00;99117.31;6231345;23;20021;-96
2023/12/26 12:09:46;;;;;;;5.38;1.90;;;;;;;13.96;100.00;99113.38;6233496;23;20051;-96
2023/12/26 12:12:19;;;;;;;6.75;1.80;;;;;;;14.21;100.00;99124.06;6233883;23;20016;-95
2023/12/26 12:14:57;;;;;;;5.65;1.50;;;;;;;14.45;100.00;99143.72;6235798;23;20020;-94
2023/12/26 12:17:30;;;;;;;6.95;1.90;;;;;;;14.77;100.00;99190.72;6235963;23;20022;-96
2023/12/26 12:20:09;;;;;;;5.32;1.85;;;;;;;14.36;100.00;99109.28;6235217;23;20024;-96
2023/12/26 12:22:35;;;;;;;5.00;2.00;;;;;;;14.62;100.00;99118.16;6235857;23;20015;-95
2023/12/26 12:25:14;;;;;;;6.63;2.28;;;;;;;14.57;100.00;99100.47;6226543;23;20020;-95
2023/12/26 12:27:41;;;;;;;6.82;1.50;;;;;;;14.42;100.00;99087.66;6236243;23;20439;-94
2023/12/26 12:30:17;;;;;;;3.50;1.50;;;;;;;14.58;100.00;99096.00;6254447;23;20024;-95
2023/12/26 12:32:45;;;;;;;4.85;1.92;;;;;;;14.99;100.00;99155.97;6257425;23;20016;-94
2023/12/26 12:35:57;;;;;;;6.13;1.83;;;;;;;14.61;100.00;99095.00;6258627;23;20043;-93
2023/12/26 12:38:35;;;;;;;5.38;2.10;;;;;;;14.81;100.00;99140.59;6255293;23;20099;-95
2023/12/26 12:41:09;;;;;;;4.03;1.50;;;;;;;14.52;100.00;99090.84;6257283;23;20027;-96
2023/12/26 12:46:36;;;;;;;6.70;1.60;;;;;;;14.26;100.00;99123.91;6230741;23;20086;-96
2023/12/26 12:49:04;;;;;;;6.72;1.75;;;;;;;14.04;100.00;99103.28;6261343;23;20024;-95
2023/12/26 12:51:34;;;;;;;6.13;1.70;;;;;;;14.16;100.00;99129.59;6260040;23;20039;-96
2023/12/26 12:54:00;;;;;;;5.97;1.70;;;;;;;13.93;100.00;99101.00;6257540;23;20022;-91
2023/12/26 12:56:26;;;;;;;7.07;2.10;;;;;;;13.98;100.00;99120.41;6259383;23;20020;-94
2023/12/26 12:58:55;;;;;;;6.25;1.83;;;;;;;13.82;100.00;99099.63;6256486;23;20027;-95
2023/12/26 13:01:24;;;;;;;10.05;3.08;;;;;;;13.79;100.00;99095.25;6262058;23;20043;-96
2023/12/26 13:03:58;;;;;;;8.98;2.40;;;;;;;13.84;100.00;99097.78;6258922;23;20019;-95
2023/12/26 13:06:39;;;;;;;7.55;1.98;;;;;;;14.51;100.00;99175.59;6259161;23;20027;-96
2023/12/26 13:09:08;;;;;;;6.45;1.95;;;;;;;14.23;100.00;99097.28;6260901;23;20023;-95
2023/12/26 13:11:42;;;;;;;5.05;2.47;;;;;;;14.28;100.00;99096.16;6260999;23;20026;-95
2023/12/26 13:14:35;;;;;;;9.18;2.22;;;;;;;14.80;100.00;99165.63;6261004;23;20034;-95
2023/12/26 13:17:02;;;;;;;7.50;1.63;;;;;;;14.35;100.00;99110.19;6259352;22;20023;-94
2023/12/26 13:19:51;;;;;;;4.32;1.73;;;;;;;14.72;100.00;99181.09;6260067;23;20066;-96
2023/12/26 13:22:27;;;;;;;4.13;1.40;;;;;;;14.56;100.00;99173.66;6257477;23;20012;-95
2023/12/26 13:24:56;;;;;;;3.95;2.58;;;;;;;14.25;100.00;99103.41;6256434;23;20093;-95
2023/12/26 13:27:26;;;;;;;4.70;1.98;;;;;;;14.49;100.00;99139.13;6255476;23;20020;-96
2023/12/26 13:29:58;;;;;;;7.63;2.67;;;;;;;14.17;100.00;99099.22;6261189;22;20015;-93
2023/12/26 13:32:25;;;;;;;9.63;2.20;;;;;;;14.45;100.00;99162.44;6260333;22;20016;-96
2023/12/26 13:34:55;;;;;;;11.95;2.42;;;;;;;13.91;100.00;99088.59;6264388;22;20087;-96
2023/12/26 13:37:32;;;;;;;6.43;2.95;;;;;;;13.86;100.00;99083.44;6263533;22;20077;-96
2023/12/26 13:40:00;;;;;;;5.78;2.50;;;;;;;13.82;100.00;99081.78;6261146;22;20039;-96
2023/12/26 13:42:33;;;;;;;6.78;2.95;;;;;;;13.82;100.00;99083.59;6263219;22;20131;-96
2023/12/26 13:45:13;;;;;;;5.70;2.17;;;;;;;13.85;100.00;99080.81;6262005;22;19999;-94
2023/12/26 13:47:42;;;;;;;6.38;1.52;;;;;;;14.07;100.00;99118.34;6263579;22;20042;-96
2023/12/26 13:50:10;;;;;;;7.45;1.90;;;;;;;13.83;100.00;99085.31;6262348;22;20102;-96
2023/12/26 13:52:48;;;;;;;5.30;2.13;;;;;;;14.30;100.00;99163.88;6261398;22;20012;-96
2023/12/26 13:55:43;;;;;;;8.18;2.05;;;;;;;13.71;100.00;99092.84;6263635;22;20494;-96
2023/12/26 13:58:13;;;;;;;4.53;2.00;;;;;;;13.99;100.00;99129.31;6264378;22;20023;-96
2023/12/26 14:00:41;;;;;;;6.00;3.33;;;;;;;13.55;100.00;99092.53;6260071;22;20019;-95
2023/12/26 14:03:10;;;;;;;3.90;1.95;;;;;;;13.46;100.00;99082.13;6260206;22;20430;-95
2023/12/26 14:05:40;;;;;;;7.53;2.17;;;;;;;13.42;100.00;99084.94;6261679;22;20016;-95
2023/12/26 14:08:16;;;;;;;5.00;1.65;;;;;;;13.40;100.00;99090.34;6260509;22;20019;-94
2023/12/26 14:10:59;;;;;;;;;;;;;;;13.95;100.00;99170.47;6261824;22;20019;-94
2023/12/26 14:13:38;;;;;;;5.53;1.70;;;;;;;13.49;100.00;99091.84;6252807;22;19999;-95
2023/12/26 14:16:23;;;;;;;5.88;1.90;;;;;;;13.38;100.00;99092.22;6264230;22;20023;-96
2023/12/26 14:18:56;;;;;;;7.10;1.98;;;;;;;13.29;100.00;99088.06;6259667;22;20330;-96
2023/12/26 14:21:38;;;;;;;8.60;3.03;;;;;;;13.14;100.00;99091.16;6262420;22;20024;-96
2023/12/26 14:24:06;;;;;;;8.07;2.83;;;;;;;13.22;100.00;99128.31;6259076;22;20012;-95
2023/12/26 14:26:36;;;;;;;5.50;2.55;;;;;;;13.07;100.00;99094.97;6258541;22;20012;-96
2023/12/26 14:29:05;;;;;;;6.75;2.75;;;;;;;13.28;100.00;99161.06;6252994;23;20024;-95
2023/12/26 14:31:35;;;;;;;5.50;3.10;;;;;;;13.03;100.00;99114.66;6253497;23;20016;-96
2023/12/26 14:34:04;;;;;;;5.78;3.00;;;;;;;13.05;100.00;99103.00;6252548;23;20020;-96
2023/12/26 14:36:30;;;;;;;8.25;3.58;;;;;;;13.25;100.00;99146.91;6252513;23;20114;-94
2023/12/26 14:38:58;;;;;;;18.42;5.20;;;;;;;12.97;100.00;99106.84;6252038;23;20020;-94
2023/12/26 14:41:30;;;;;;;22.63;6.75;;;;;;;12.93;100.00;99116.78;6251655;23;20509;-96
2023/12/26 14:43:57;;;;;;;12.73;3.90;;;;;;;12.83;100.00;99123.31;6252270;23;20012;-93
2023/12/26 14:46:27;;;;;;;11.63;4.28;;;;;;;12.82;100.00;99122.44;6251256;23;20358;-95
2023/12/26 14:48:53;;;;;;;16.52;6.32;;;;;;;12.80;100.00;99112.72;6250973;23;20020;-95
2023/12/26 14:51:19;;;;;;;9.25;3.88;;;;;;;12.86;100.00;99144.53;6252501;23;20027;-94
2023/12/26 14:53:50;;;;;;;14.13;4.57;;;;;;;12.73;100.00;99117.38;6251718;23;20070;-95
2023/12/26 14:56:19;;;;;;;9.32;3.95;;;;;;;12.79;100.00;99122.50;6253324;23;20067;-94
2023/12/26 14:58:51;;;;;;;12.85;4.00;;;;;;;13.01;100.00;99168.13;6251186;23;20354;-95
2023/12/26 15:01:26;;;;;;;12.68;4.85;;;;;;;12.71;100.00;99113.88;6250589;23;20393;-95
2023/12/26 15:03:55;;;;;;;11.00;4.80;;;;;;;12.69;100.00;99116.59;6250924;23;20533;-94
2023/12/26 15:06:21;;;;;;;8.95;4.03;;;;;;;12.83;100.00;99145.50;6251884;23;20092;-94
2023/12/26 15:08:49;;;;;;;12.57;4.05;;;;;;;12.69;100.00;99123.72;6252730;23;20023;-95
2023/12/26 15:11:28;;;;;;;11.90;4.57;;;;;;;12.64;100.00;99133.66;6278597;22;20042;-95
2023/12/26 15:13:59;;;;;;;10.95;5.00;;;;;;;12.52;100.00;99122.41;6252357;23;20354;-94
2023/12/26 15:16:31;;;;;;;10.45;4.60;;;;;;;12.62;100.00;99130.16;6251489;23;20016;-95
2023/12/26 15:18:58;;;;;;;10.13;5.13;;;;;;;12.79;100.00;99159.00;6251541;23;20032;-95
2023/12/26 15:21:24;;;;;;;13.95;4.97;;;;;;;12.76;100.00;99143.97;6251937;23;20103;-95
2023/12/26 15:23:53;;;;;;;21.33;7.00;;;;;;;12.60;100.00;99132.88;6250255;23;20020;-94
2023/12/26 15:26:22;;;;;;;12.52;4.85;;;;;;;12.56;100.00;99125.03;6251641;23;20508;-95
2023/12/26 15:28:59;;;;;;;9.98;4.40;;;;;;;12.48;100.00;99130.56;6253020;23;20024;-95
2023/12/26 15:31:29;;;;;;;12.30;4.38;;;;;;;12.62;100.00;99156.81;6253298;23;20074;-95
2023/12/26 15:33:55;;;;;;;12.27;4.68;;;;;;;12.41;100.00;99132.53;6251341;23;20012;-94
2023/12/26 15:36:27;;;;;;;10.43;4.50;;;;;;;12.46;100.00;99145.72;6251768;23;20042;-96
2023/12/26 15:39:27;;;;;;;8.32;3.75;;;;;;;12.41;100.00;99139.66;6253270;23;20016;-94
2023/12/26 15:41:53;;;;;;;9.45;4.78;;;;;;;12.35;100.00;99129.16;6220680;23;20023;-94
2023/12/26 15:44:41;;;;;;;13.68;5.20;;;;;;;12.91;100.00;99234.25;6224098;23;20058;-95
2023/12/26 15:47:23;;;;;;;8.68;4.93;;;;;;;12.43;100.00;99160.03;6199173;23;20070;-95
2023/12/26 15:49:51;;;;;;;10.65;3.80;;;;;;;12.33;100.00;99145.22;6198069;23;20051;-95
2023/12/26 15:52:26;;;;;;;8.23;3.80;;;;;;;12.81;100.00;99230.09;6197361;23;20016;-95
2023/12/26 15:55:10;;;;;;;7.82;4.15;;;;;;;12.58;100.00;99176.50;6222910;23;20021;-96
2023/12/26 15:57:44;;;;;;;10.40;4.38;;;;;;;12.39;100.00;99150.38;6197788;23;20019;-95
2023/12/26 16:00:28;;;;;;;10.98;4.43;;;;;;;12.30;100.00;99153.31;6196307;23;20016;-95
2023/12/26 16:03:08;;;;;;;12.38;5.85;;;;;;;12.60;100.00;99196.00;6196009;23;20443;-96
2023/12/26 16:05:40;;;;;;;10.05;4.45;;;;;;;12.26;100.00;99164.97;6196893;23;20021;-94
2023/12/26 16:08:10;;;;;;;9.20;4.70;;;;;;;12.25;100.00;99188.09;6197067;23;20021;-96
2023/12/26 16:10:42;;;;;;;11.18;5.35;;;;;;;12.11;100.00;99166.25;6198155;23;20102;-96
2023/12/26 16:13:46;;;;;;;10.68;4.68;;;;;;;12.52;100.00;99257.59;6228977;23;20016;-94
2023/12/26 16:16:38;;;;;;;7.75;4.80;;;;;;;11.91;100.00;99156.13;6254036;22;20469;-96
2023/12/26 16:19:09;;;;;;;12.88;6.10;;;;;;;12.36;100.00;99249.16;6253730;23;20027;-95
2023/12/26 16:21:39;;;;;;;12.48;6.57;;;;;;;12.39;100.00;99246.38;6253878;23;20047;-94
2023/12/26 16:24:19;;;;;;;14.43;7.97;;;;;;;12.29;100.00;99250.19;6253705;23;20103;-95
2023/12/26 16:26:46;;;;;;;16.38;7.53;;;;;;;11.78;100.00;99168.88;6252765;23;20023;-96
2023/12/26 16:29:23;;;;;;;14.13;6.68;;;;;;;12.06;100.00;99233.03;6258354;22;20020;-95
2023/12/26 16:31:54;;;;;;;11.57;5.95;;;;;;;11.49;100.00;99167.81;6259320;22;20016;-96
2023/12/26 16:34:25;;;;;;;13.85;5.97;;;;;;;11.99;100.00;99255.44;6258291;22;20016;-95
2023/12/26 16:36:55;;;;;;;;;;;;;;;11.94;100.00;99249.31;6259112;22;20019;-93
2023/12/26 16:39:29;;;;;;;10.77;4.47;;;;;;;11.40;100.00;99185.78;6258417;22;20014;-96
2023/12/26 16:42:00;;;;;;;14.38;5.53;;;;;;;11.30;100.00;99175.34;6258257;22;20016;-95
2023/12/26 16:44:29;;;;;;;14.68;5.30;;;;;;;11.23;100.00;99181.75;6259391;22;20020;-96